Time;durP1;ratioP1;P1;durP2;ratioP2;P2;SDS_P1;SDS_P2;PMS_P1;PMS_P2;Temp;Humidity;BMP_temperature;BMP_pressure;BME280_temperature;BME280_humidity;BME280_pressure;Samples;Min_cycle;Max_cycle;Signal;HPM_P1;HPM_P2
2020/12/18 00:00:49;;;;;;;3.45;3.25;;;;;;;7.88;99.52;101129.50;6028820;29;20203;-78
2020/12/18 00:04:03;;;;;;;3.60;3.30;;;;;;;7.97;99.19;101141.06;6033818;29;20202;-79
2020/12/18 00:07:08;;;;;;;2.92;2.83;;;;;;;8.02;99.03;101135.88;6024709;29;20203;-79
2020/12/18 00:10:15;;;;;;;4.22;2.88;;;;;;;8.00;99.38;101132.53;6033475;29;20191;-77
2020/12/18 00:13:23;;;;;;;4.18;3.40;;;;;;;8.07;98.78;101137.00;6030954;29;20675;-77
2020/12/18 00:16:26;;;;;;;3.33;3.13;;;;;;;7.99;99.05;101136.28;6032554;29;20201;-77
2020/12/18 00:19:30;;;;;;;3.00;2.80;;;;;;;8.08;98.43;101135.97;6026833;29;20207;-79
2020/12/18 00:22:34;;;;;;;3.00;2.90;;;;;;;8.11;98.15;101132.03;6031538;29;20199;-80
2020/12/18 00:25:37;;;;;;;2.88;2.78;;;;;;;8.09;98.34;101134.06;6017764;29;20214;-78
2020/12/18 00:28:41;;;;;;;2.85;2.70;;;;;;;7.99;97.93;101109.09;6032523;29;20612;-81
2020/12/18 00:31:44;;;;;;;3.33;3.17;;;;;;;8.12;98.22;101125.53;6031546;29;20252;-77
2020/12/18 00:34:49;;;;;;;3.25;2.88;;;;;;;8.09;98.04;101131.34;6050316;29;20217;-81
2020/12/18 00:37:53;;;;;;;3.33;3.13;;;;;;;7.96;98.15;101125.81;6032279;29;20206;-78
2020/12/18 00:40:57;;;;;;;3.23;3.03;;;;;;;7.78;99.23;101098.25;6031636;29;20354;-79
2020/12/18 00:44:00;;;;;;;3.40;3.00;;;;;;;8.01;98.63;101112.50;6032028;29;20199;-78
2020/12/18 00:47:03;;;;;;;3.50;3.10;;;;;;;8.15;97.84;101111.56;6030639;29;20206;-80
2020/12/18 00:50:10;;;;;;;3.17;3.03;;;;;;;7.91;98.22;101117.41;6028861;29;20227;-78
2020/12/18 00:53:13;;;;;;;3.38;3.17;;;;;;;7.90;99.11;101115.72;6029396;29;20235;-79
2020/12/18 00:56:20;;;;;;;4.82;3.22;;;;;;;7.89;99.11;101108.59;6012536;29;20755;-79
2020/12/18 00:59:25;;;;;;;3.40;3.20;;;;;;;7.91;99.23;101118.22;6015135;29;20210;-79
2020/12/18 01:02:28;;;;;;;3.67;3.47;;;;;;;7.89;99.01;101124.88;6029687;29;20522;-80
2020/12/18 01:05:33;;;;;;;3.88;3.05;;;;;;;7.98;98.67;101118.31;6014644;29;20216;-79
2020/12/18 01:08:37;;;;;;;4.43;3.78;;;;;;;7.84;98.71;101116.47;6010515;29;20207;-78
2020/12/18 01:11:41;;;;;;;5.93;3.40;;;;;;;7.77;99.40;101118.28;6013762;29;20254;-79
2020/12/18 01:14:49;;;;;;;4.13;3.77;;;;;;;7.77;100.00;101121.00;6029335;29;20230;-78
2020/12/18 01:17:52;;;;;;;3.80;3.60;;;;;;;7.85;99.55;101123.59;6013416;29;20355;-80
2020/12/18 01:20:59;;;;;;;4.28;3.97;;;;;;;7.71;99.09;101094.59;6011740;29;20335;-80
2020/12/18 01:24:11;;;;;;;3.88;3.58;;;;;;;7.80;99.76;101115.19;6017976;29;20619;-80
2020/12/18 01:27:19;;;;;;;3.95;3.55;;;;;;;7.76;100.00;101114.72;6009530;29;20203;-78
2020/12/18 01:30:23;;;;;;;3.55;3.35;;;;;;;7.91;98.30;101111.97;6013340;29;20293;-79
2020/12/18 01:33:30;;;;;;;4.30;3.28;;;;;;;8.00;97.28;101116.22;6016329;29;20218;-79
2020/12/18 01:36:36;;;;;;;3.40;3.30;;;;;;;7.94;97.29;101097.97;6029907;29;20211;-78
2020/12/18 01:39:52;;;;;;;3.83;3.53;;;;;;;7.98;97.47;101107.44;6011887;29;20218;-84
2020/12/18 01:43:01;;;;;;;3.65;3.45;;;;;;;7.85;97.93;101074.69;6020440;29;20294;-79
2020/12/18 01:46:10;;;;;;;3.60;3.30;;;;;;;7.76;97.13;101087.56;6014503;29;20239;-80
2020/12/18 01:49:15;;;;;;;4.43;3.72;;;;;;;8.02;96.89;101098.69;6012126;29;20612;-79
2020/12/18 01:52:26;;;;;;;3.97;3.67;;;;;;;8.08;95.97;101091.66;6014738;29;20330;-79
2020/12/18 01:55:36;;;;;;;3.78;3.50;;;;;;;8.06;95.96;101099.97;6011884;29;20367;-78
2020/12/18 01:58:41;;;;;;;3.70;3.60;;;;;;;7.74;95.82;101050.75;6006705;29;20306;-77
2020/12/18 02:01:51;;;;;;;3.72;3.42;;;;;;;8.05;96.03;101098.31;6009697;29;20293;-78
2020/12/18 02:05:11;;;;;;;3.38;3.28;;;;;;;7.95;96.32;101108.66;6013877;29;20195;-80
2020/12/18 02:08:26;;;;;;;2.92;2.92;;;;;;;8.00;96.50;101105.34;6007936;29;20563;-78
2020/12/18 02:11:53;;;;;;;3.13;3.03;;;;;;;7.83;96.66;101103.94;6025528;29;20213;-79
2020/12/18 02:14:57;;;;;;;3.20;3.10;;;;;;;7.81;97.28;101105.97;6014355;29;20297;-78
2020/12/18 02:18:20;;;;;;;3.13;3.07;;;;;;;7.97;96.16;101100.31;6014927;29;20210;-79
2020/12/18 02:21:25;;;;;;;3.75;3.53;;;;;;;7.70;97.40;101095.66;6027155;29;20214;-79
2020/12/18 02:24:33;;;;;;;3.05;2.85;;;;;;;7.62;97.06;101069.44;6003856;29;20218;-78
2020/12/18 02:27:38;;;;;;;2.72;2.63;;;;;;;7.98;95.63;101096.56;6009852;29;20219;-78
2020/12/18 02:30:45;;;;;;;3.13;3.00;;;;;;;7.92;96.20;101089.19;6011829;29;20199;-78
2020/12/18 02:34:03;;;;;;;4.30;2.83;;;;;;;7.92;96.17;101097.34;6029048;29;20227;-78
2020/12/18 02:37:11;;;;;;;3.28;3.03;;;;;;;7.69;97.12;101066.78;6012776;29;20348;-78
2020/12/18 02:40:16;;;;;;;3.00;2.80;;;;;;;7.58;97.76;101085.28;6010952;29;20710;-80
2020/12/18 02:43:44;;;;;;;4.00;3.13;;;;;;;7.76;98.21;101092.13;6027467;29;20219;-78
2020/12/18 02:46:48;;;;;;;3.20;3.00;;;;;;;7.88;97.16;101085.19;6041696;29;20223;-83
2020/12/18 02:49:52;;;;;;;3.58;2.53;;;;;;;7.73;97.43;101073.53;6011120;29;20214;-78
2020/12/18 02:53:15;;;;;;;3.13;2.83;;;;;;;7.97;96.46;101089.44;6028283;29;20238;-78
2020/12/18 02:56:40;;;;;;;2.85;2.75;;;;;;;7.81;96.72;101089.69;6029607;29;20195;-78
2020/12/18 02:59:59;;;;;;;2.67;2.58;;;;;;;7.86;96.51;101081.78;6024947;29;20664;-80
2020/12/18 03:03:14;;;;;;;2.85;2.65;;;;;;;7.71;96.98;101089.16;6013340;29;20279;-78
2020/12/18 03:06:22;;;;;;;2.22;2.20;;;;;;;7.60;97.01;101092.41;6024808;29;20214;-80
2020/12/18 03:09:28;;;;;;;3.25;2.25;;;;;;;7.64;97.07;101094.53;6011778;29;20214;-78
2020/12/18 03:12:31;;;;;;;2.67;2.30;;;;;;;7.75;96.71;101095.91;6012362;29;20270;-79
2020/12/18 03:15:35;;;;;;;1.90;1.90;;;;;;;7.74;95.85;101077.91;6008918;29;20281;-78
2020/12/18 03:18:58;;;;;;;3.92;2.20;;;;;;;7.84;95.84;101087.44;6010539;29;20433;-81
2020/12/18 03:22:02;;;;;;;2.20;2.10;;;;;;;7.93;94.84;101099.03;6020003;29;20683;-79
2020/12/18 03:25:18;;;;;;;2.57;2.07;;;;;;;7.67;96.08;101082.44;6010190;29;20230;-80
2020/12/18 03:28:41;;;;;;;1.60;1.60;;;;;;;7.67;96.29;101082.44;6026249;29;20203;-78
2020/12/18 03:31:46;;;;;;;7.07;2.20;;;;;;;7.75;95.19;101080.47;6008227;29;20298;-78
2020/12/18 03:34:50;;;;;;;3.30;2.17;;;;;;;7.70;95.38;101092.94;6028043;29;20222;-78
2020/12/18 03:38:01;;;;;;;1.80;1.70;;;;;;;7.67;94.71;101087.88;6011906;29;20666;-78
2020/12/18 03:41:06;;;;;;;2.30;1.95;;;;;;;7.72;94.60;101090.84;6011503;29;20646;-78
2020/12/18 03:44:15;;;;;;;1.80;1.70;;;;;;;7.84;94.34;101089.31;6010231;29;20207;-77
2020/12/18 03:47:21;;;;;;;1.55;1.55;;;;;;;7.67;95.02;101087.88;6011158;29;20207;-78
2020/12/18 03:50:33;;;;;;;1.70;1.70;;;;;;;7.80;94.15;101082.59;6011649;29;20290;-78
2020/12/18 03:53:45;;;;;;;1.57;1.47;;;;;;;7.84;94.52;101089.31;6032115;29;20320;-78
2020/12/18 03:57:12;;;;;;;1.93;1.73;;;;;;;7.81;94.68;101084.25;6024741;29;20296;-79
2020/12/18 04:00:35;;;;;;;1.50;1.40;;;;;;;7.78;95.27;101098.25;6012213;29;20218;-79
2020/12/18 04:03:44;;;;;;;1.53;1.53;;;;;;;7.78;95.04;101090.09;6032536;29;20210;-78
2020/12/18 04:06:48;;;;;;;1.70;1.60;;;;;;;7.82;94.78;101086.78;6013434;29;20225;-79
2020/12/18 04:09:51;;;;;;;1.67;1.63;;;;;;;7.88;94.60;101096.06;6015161;29;20206;-79
2020/12/18 04:13:01;;;;;;;2.20;1.43;;;;;;;7.87;94.27;101083.50;6014513;29;20211;-78
2020/12/18 04:16:05;;;;;;;4.07;1.55;;;;;;;7.63;95.55;101083.88;6015473;29;20257;-78
2020/12/18 04:19:12;;;;;;;1.10;1.10;;;;;;;7.48;94.93;101090.16;6032781;29;20191;-78
2020/12/18 04:22:15;;;;;;;1.37;1.23;;;;;;;7.63;95.17;101097.44;6015161;29;20203;-78
2020/12/18 04:25:32;;;;;;;1.40;1.30;;;;;;;7.54;94.94;101085.84;6015017;29;20262;-78
2020/12/18 04:28:36;;;;;;;1.58;1.10;;;;;;;7.70;93.95;101098.34;6015422;29;20209;-80
2020/12/18 04:31:39;;;;;;;1.98;1.10;;;;;;;7.76;93.82;101100.28;6013697;29;20682;-79
2020/12/18 04:34:45;;;;;;;2.15;1.45;;;;;;;7.67;94.69;101099.59;6025558;29;20321;-78
2020/12/18 04:38:00;;;;;;;1.95;1.10;;;;;;;7.83;92.97;101099.31;6028575;29;20660;-78
2020/12/18 04:41:16;;;;;;;3.13;1.10;;;;;;;7.60;92.50;101081.53;6008712;29;20210;-79
2020/12/18 04:44:30;;;;;;;1.00;1.00;;;;;;;7.74;92.85;101094.22;6026300;29;20297;-78
2020/12/18 04:47:41;;;;;;;1.00;1.00;;;;;;;7.69;92.22;101080.38;6014398;29;20573;-78
2020/12/18 04:50:47;;;;;;;1.10;1.10;;;;;;;7.64;92.51;101089.09;6014964;29;20230;-79
2020/12/18 04:54:08;;;;;;;1.00;1.00;;;;;;;7.60;91.67;101100.53;5993991;29;20231;-79
2020/12/18 04:57:23;;;;;;;3.40;1.08;;;;;;;7.67;92.26;101093.31;6010973;29;20188;-80
2020/12/18 05:00:26;;;;;;;5.05;1.10;;;;;;;7.60;92.50;101092.41;5993868;29;20616;-79
2020/12/18 05:03:49;;;;;;;1.40;1.10;;;;;;;7.50;92.12;101093.53;5992570;29;20196;-78
2020/12/18 05:06:56;;;;;;;1.03;1.03;;;;;;;7.52;92.48;101099.59;5993400;29;20315;-78
2020/12/18 05:10:13;;;;;;;0.90;0.90;;;;;;;7.53;91.79;101093.16;5978639;29;20210;-78
2020/12/18 05:13:35;;;;;;;1.80;0.80;;;;;;;7.68;90.37;101098.53;6000365;29;20263;-78
2020/12/18 05:16:46;;;;;;;0.80;0.73;;;;;;;7.71;89.83;101094.59;6006444;29;20306;-78
2020/12/18 05:20:01;;;;;;;0.80;0.80;;;;;;;7.60;90.85;101108.69;5999706;29;20368;-78
2020/12/18 05:23:39;;;;;;;1.03;0.70;;;;;;;7.40;91.81;101108.44;6004332;29;20206;-78
2020/12/18 05:27:05;;;;;;;0.80;0.80;;;;;;;7.35;92.05;101100.00;6012386;29;20655;-78
2020/12/18 05:30:12;;;;;;;0.80;0.80;;;;;;;7.36;92.43;101116.13;6016384;29;20215;-78
2020/12/18 05:33:52;;;;;;;0.88;0.88;;;;;;;7.36;91.67;101101.72;5938559;29;20432;-77
2020/12/18 05:37:15;;;;;;;4.23;0.90;;;;;;;7.51;91.17;101116.94;5977627;29;20220;-78
2020/12/18 05:40:35;;;;;;;0.82;0.80;;;;;;;7.51;90.92;101116.09;5988773;29;20348;-79
2020/12/18 05:44:05;;;;;;;1.73;0.80;;;;;;;7.41;91.40;101104.69;5995254;29;20263;-78
2020/12/18 05:47:27;;;;;;;0.53;0.53;;;;;;;7.40;91.45;101109.28;6005963;29;20298;-77
2020/12/18 05:50:33;;;;;;;1.17;0.70;;;;;;;7.28;91.70;101132.50;5989943;29;20250;-78
2020/12/18 05:53:38;;;;;;;0.70;0.70;;;;;;;7.43;91.17;101135.19;5999133;29;20243;-78
2020/12/18 05:56:59;;;;;;;0.73;0.70;;;;;;;7.51;90.41;101122.38;6009588;29;20226;-79
2020/12/18 06:00:04;;;;;;;0.73;0.73;;;;;;;7.41;90.88;101143.56;6011424;29;20207;-78
2020/12/18 06:03:39;;;;;;;0.70;0.70;;;;;;;7.36;90.61;101145.13;6027834;29;20223;-83
2020/12/18 06:06:48;;;;;;;1.10;0.97;;;;;;;7.30;90.57;101152.16;6024330;29;20659;-80
2020/12/18 06:10:02;;;;;;;0.77;0.77;;;;;;;7.27;90.68;101130.81;6008910;29;20294;-80
2020/12/18 06:13:31;;;;;;;1.03;1.00;;;;;;;7.14;91.75;101163.19;6027336;29;20213;-77
2020/12/18 06:16:50;;;;;;;0.73;0.73;;;;;;;7.08;92.26;101155.81;6030831;29;20244;-78
2020/12/18 06:20:15;;;;;;;2.90;0.90;;;;;;;6.86;92.05;101140.44;6027867;29;20253;-78
2020/12/18 06:23:28;;;;;;;0.70;0.70;;;;;;;7.12;92.34;101175.25;6015616;29;20255;-80
2020/12/18 06:26:58;;;;;;;0.60;0.60;;;;;;;7.18;92.06;101166.38;6015120;29;20340;-79
2020/12/18 06:30:23;;;;;;;0.70;0.70;;;;;;;7.16;91.11;101160.31;6018180;29;20210;-81
2020/12/18 06:33:53;;;;;;;0.70;0.70;;;;;;;7.32;90.78;101182.66;6036082;29;20306;-78
2020/12/18 06:37:28;;;;;;;0.60;0.60;;;;;;;7.01;90.10;101168.41;6028489;29;20266;-79
2020/12/18 06:40:47;;;;;;;0.70;0.70;;;;;;;7.10;91.34;101186.31;6017288;29;20233;-78
2020/12/18 06:44:33;;;;;;;0.93;0.80;;;;;;;6.99;91.59;101205.75;6030900;29;20242;-80
2020/12/18 06:47:57;;;;;;;0.80;0.80;;;;;;;6.98;91.36;101203.25;6030133;29;20402;-81
2020/12/18 06:51:24;;;;;;;0.80;0.80;;;;;;;7.00;91.20;101199.31;6031675;29;20286;-80
2020/12/18 06:54:56;;;;;;;0.80;0.80;;;;;;;7.06;91.38;101209.41;6028758;29;20274;-77
2020/12/18 06:58:15;;;;;;;0.80;0.80;;;;;;;7.05;91.95;101215.88;6021854;29;21382;-79
2020/12/18 07:01:30;;;;;;;1.33;0.73;;;;;;;7.06;91.24;101214.81;6027549;29;20206;-79
2020/12/18 07:04:40;;;;;;;0.70;0.70;;;;;;;6.81;92.31;101216.09;6025627;29;20203;-78
2020/12/18 07:07:49;;;;;;;0.63;0.63;;;;;;;6.94;91.93;101205.47;6029962;29;20206;-80
2020/12/18 07:10:52;;;;;;;0.77;0.77;;;;;;;6.86;92.33;101213.69;6038976;29;20186;-80
2020/12/18 07:14:00;;;;;;;0.60;0.60;;;;;;;6.56;91.30;101190.22;6025810;29;20669;-78
2020/12/18 07:17:10;;;;;;;0.63;0.63;;;;;;;6.92;91.42;101245.50;6029147;29;20467;-79
2020/12/18 07:20:17;;;;;;;0.80;0.70;;;;;;;6.79;92.22;101239.84;6028269;29;20351;-79
2020/12/18 07:23:32;;;;;;;0.80;0.80;;;;;;;6.59;92.59;101238.66;6028713;29;20214;-79
2020/12/18 07:26:36;;;;;;;0.80;0.80;;;;;;;6.81;92.14;101245.94;6028951;29;20355;-79
2020/12/18 07:29:41;;;;;;;0.80;0.80;;;;;;;6.90;92.63;101264.69;6028710;29;20661;-80
2020/12/18 07:32:44;;;;;;;0.60;0.60;;;;;;;6.66;92.74;101240.47;6025817;29;20292;-80
2020/12/18 07:35:52;;;;;;;0.70;0.70;;;;;;;6.66;92.63;101272.16;6035723;29;20253;-81
2020/12/18 07:38:57;;;;;;;0.73;0.73;;;;;;;6.68;92.60;101259.25;6039661;29;20206;-82
2020/12/18 07:42:01;;;;;;;0.70;0.70;;;;;;;6.94;91.93;101278.72;6034957;29;20654;-79
2020/12/18 07:45:09;;;;;;;0.70;0.70;;;;;;;6.87;91.95;101270.47;6041416;29;20290;-80
2020/12/18 07:48:23;;;;;;;0.80;0.80;;;;;;;6.92;92.17;101283.47;6038570;29;20236;-79
2020/12/18 07:51:27;;;;;;;0.60;0.60;;;;;;;6.81;92.04;101276.63;6025826;29;20683;-84
2020/12/18 07:54:30;;;;;;;0.67;0.67;;;;;;;6.76;92.98;101297.16;6038758;29;20315;-78
2020/12/18 07:57:34;;;;;;;0.83;0.83;;;;;;;6.83;92.14;101296.25;6041173;29;20225;-81
2020/12/18 08:00:37;;;;;;;0.90;0.90;;;;;;;6.88;92.00;101293.03;6031343;29;20383;-79
2020/12/18 08:03:50;;;;;;;0.80;0.80;;;;;;;6.91;91.63;101308.91;6034602;29;20195;-80
2020/12/18 08:06:55;;;;;;;0.70;0.70;;;;;;;6.76;91.33;101316.16;6033169;29;20206;-78
2020/12/18 08:10:00;;;;;;;0.60;0.60;;;;;;;6.47;91.46;101306.00;6035381;29;20210;-80
2020/12/18 08:13:05;;;;;;;0.70;0.70;;;;;;;6.51;92.01;101296.50;6043113;29;20197;-81
2020/12/18 08:16:10;;;;;;;0.70;0.70;;;;;;;6.51;91.73;101303.78;6049717;29;20206;-82
2020/12/18 08:19:14;;;;;;;0.70;0.70;;;;;;;6.73;90.84;101297.50;6039914;29;20265;-79
2020/12/18 08:22:21;;;;;;;1.03;0.93;;;;;;;6.77;90.50;101325.97;6041860;29;20224;-82
2020/12/18 08:25:25;;;;;;;0.90;0.90;;;;;;;6.86;90.68;101308.59;6036300;29;20198;-79
2020/12/18 08:28:30;;;;;;;0.73;0.73;;;;;;;6.98;90.15;101325.31;6033264;29;20257;-80
2020/12/18 08:31:36;;;;;;;0.80;0.80;;;;;;;6.87;91.39;101340.16;6033957;29;20281;-81
2020/12/18 08:34:40;;;;;;;0.73;0.73;;;;;;;6.90;90.32;101323.50;6038196;29;20207;-80
2020/12/18 08:37:44;;;;;;;2.97;0.90;;;;;;;7.02;90.01;101329.34;6037401;29;20218;-82
2020/12/18 08:40:48;;;;;;;3.40;0.80;;;;;;;6.99;89.63;101351.41;6035261;29;20199;-79
2020/12/18 08:44:04;;;;;;;0.70;0.70;;;;;;;6.99;89.76;101354.97;6034820;29;20207;-80
2020/12/18 08:47:18;;;;;;;0.77;0.77;;;;;;;6.88;89.56;101342.66;6034167;29;20203;-80
2020/12/18 08:50:23;;;;;;;0.60;0.60;;;;;;;6.83;90.00;101350.50;6034900;29;20282;-79
2020/12/18 08:53:33;;;;;;;0.73;0.73;;;;;;;6.75;91.14;101360.59;6033188;29;20358;-82
2020/12/18 08:56:38;;;;;;;0.77;0.77;;;;;;;6.71;90.05;101351.09;6028545;29;20267;-78
2020/12/18 08:59:59;;;;;;;0.80;0.80;;;;;;;6.79;89.51;101370.88;6033046;29;20310;-80
2020/12/18 09:03:08;;;;;;;0.70;0.70;;;;;;;6.70;90.62;101357.56;6030429;29;20895;-78
2020/12/18 09:06:13;;;;;;;0.90;0.90;;;;;;;6.87;89.67;101373.53;6040819;29;20211;-80
2020/12/18 09:09:17;;;;;;;0.77;0.77;;;;;;;7.03;88.59;101371.72;6044113;29;20210;-80
2020/12/18 09:12:21;;;;;;;0.70;0.70;;;;;;;7.01;89.11;101369.19;6042850;29;20278;-80
2020/12/18 09:15:26;;;;;;;0.70;0.70;;;;;;;7.03;88.79;101378.00;6032076;29;20207;-79
2020/12/18 09:18:31;;;;;;;0.70;0.70;;;;;;;6.91;88.79;101369.44;6032986;29;20210;-80
2020/12/18 09:21:35;;;;;;;0.80;0.80;;;;;;;6.93;88.54;101366.56;6041855;29;20178;-85
2020/12/18 09:24:39;;;;;;;0.90;0.90;;;;;;;6.61;90.41;101372.19;6044115;29;20195;-79
2020/12/18 09:27:43;;;;;;;0.90;0.90;;;;;;;6.82;89.86;101392.22;6030352;29;20203;-80
2020/12/18 09:30:47;;;;;;;0.80;0.80;;;;;;;6.69;89.97;101372.97;6031812;29;20201;-81
2020/12/18 09:33:50;;;;;;;0.80;0.80;;;;;;;6.79;89.69;101375.47;6029044;29;20210;-79
2020/12/18 09:36:55;;;;;;;0.90;0.90;;;;;;;6.88;89.40;101374.41;6021735;29;20217;-80
2020/12/18 09:39:59;;;;;;;2.30;1.00;;;;;;;7.04;89.10;101403.25;6029866;29;20675;-79
2020/12/18 09:43:04;;;;;;;0.90;0.90;;;;;;;6.97;89.93;101411.28;6024007;29;20250;-81
2020/12/18 09:46:22;;;;;;;0.90;0.90;;;;;;;7.04;89.72;101406.81;6029845;29;20779;-80
2020/12/18 09:49:25;;;;;;;1.00;1.00;;;;;;;6.79;90.81;101413.41;6032965;29;20250;-77
2020/12/18 09:52:29;;;;;;;1.50;1.20;;;;;;;6.65;91.60;101389.78;6031969;29;20281;-80
2020/12/18 09:55:33;;;;;;;1.67;1.30;;;;;;;6.56;92.04;101374.56;6019662;29;20268;-80
2020/12/18 09:58:37;;;;;;;3.03;1.70;;;;;;;6.73;92.24;101408.69;6033962;29;20230;-79
2020/12/18 10:01:40;;;;;;;2.00;1.90;;;;;;;6.84;91.43;101408.31;6032728;29;20202;-79
2020/12/18 10:04:43;;;;;;;1.67;1.67;;;;;;;6.87;91.95;101432.38;6035580;29;20198;-81
2020/12/18 10:07:46;;;;;;;1.33;1.33;;;;;;;6.81;91.56;101408.66;6034806;29;20585;-78
2020/12/18 10:10:50;;;;;;;1.30;1.30;;;;;;;6.53;91.54;101386.63;6038650;29;20293;-81
2020/12/18 10:13:54;;;;;;;1.00;1.00;;;;;;;6.75;90.89;101412.09;6039464;29;20242;-80
2020/12/18 10:16:57;;;;;;;1.20;1.20;;;;;;;6.83;90.09;101437.28;6039017;29;20206;-80
2020/12/18 10:20:00;;;;;;;1.33;1.20;;;;;;;6.87;90.62;101432.38;6028273;29;20205;-81
2020/12/18 10:23:08;;;;;;;1.20;1.20;;;;;;;6.85;90.47;101429.00;6029723;29;20281;-79
2020/12/18 10:26:12;;;;;;;1.20;1.20;;;;;;;6.91;90.56;101439.13;6025160;29;20211;-79
2020/12/18 10:29:18;;;;;;;2.53;1.30;;;;;;;6.75;90.43;101448.19;6043380;29;20213;-79
2020/12/18 10:32:21;;;;;;;1.13;1.13;;;;;;;6.96;89.18;101444.03;6025049;29;20288;-80
2020/12/18 10:35:24;;;;;;;1.45;0.93;;;;;;;6.92;88.22;101432.66;6029381;29;20480;-79
2020/12/18 10:38:29;;;;;;;0.90;0.90;;;;;;;6.85;87.60;101445.28;6029733;29;20221;-79
2020/12/18 10:41:33;;;;;;;1.10;1.10;;;;;;;6.98;87.11;101452.81;6029676;29;20298;-80
2020/12/18 10:44:37;;;;;;;0.83;0.83;;;;;;;6.90;86.23;101453.72;6028848;29;20207;-78
2020/12/18 10:47:40;;;;;;;0.90;0.90;;;;;;;6.99;85.71;101449.06;6026270;29;20778;-78
2020/12/18 10:50:43;;;;;;;0.90;0.90;;;;;;;6.86;85.66;101457.78;6029262;29;20240;-79
2020/12/18 10:53:46;;;;;;;1.10;0.97;;;;;;;6.75;85.38;101433.81;6029877;29;20246;-79
2020/12/18 10:56:51;;;;;;;0.90;0.90;;;;;;;6.91;84.86;101466.25;6029296;29;20590;-79
2020/12/18 10:59:55;;;;;;;0.90;0.90;;;;;;;6.86;85.32;101468.63;6022203;29;20202;-79
2020/12/18 11:02:59;;;;;;;1.10;1.10;;;;;;;6.60;86.49;101462.69;6028033;29;20345;-80
2020/12/18 11:06:04;;;;;;;1.37;1.20;;;;;;;6.75;86.85;101460.91;6030508;29;20207;-78
2020/12/18 11:09:09;;;;;;;1.10;1.10;;;;;;;6.78;85.85;101472.25;6029771;29;20214;-78
2020/12/18 11:12:16;;;;;;;1.20;1.20;;;;;;;6.77;86.34;101464.28;6034995;29;20276;-78
2020/12/18 11:15:19;;;;;;;0.90;0.90;;;;;;;6.64;86.70;101467.56;6033167;29;20224;-79
2020/12/18 11:18:28;;;;;;;2.87;1.40;;;;;;;6.75;85.93;101482.63;6034693;29;20222;-80
2020/12/18 11:21:32;;;;;;;0.90;0.90;;;;;;;6.67;85.93;101482.66;6035702;29;20210;-78
2020/12/18 11:24:37;;;;;;;1.00;1.00;;;;;;;6.67;86.27;101488.06;6033684;29;20210;-79
2020/12/18 11:27:41;;;;;;;0.90;0.90;;;;;;;6.56;85.78;101477.59;6036870;29;20248;-79
2020/12/18 11:30:44;;;;;;;0.90;0.90;;;;;;;6.63;85.56;101482.16;6039809;29;20228;-79
2020/12/18 11:33:47;;;;;;;1.00;1.00;;;;;;;6.66;85.09;101483.66;6050871;29;20194;-85
2020/12/18 11:36:51;;;;;;;1.10;1.10;;;;;;;6.57;85.81;101490.16;6041069;29;20223;-79
2020/12/18 11:39:54;;;;;;;1.10;1.10;;;;;;;6.51;84.83;101501.69;6032806;29;20207;-79
2020/12/18 11:42:59;;;;;;;1.10;1.10;;;;;;;6.30;84.38;101522.06;6018588;29;20202;-79
2020/12/18 11:46:03;;;;;;;5.33;0.90;;;;;;;6.34;83.99;101516.31;6033436;29;20618;-77
2020/12/18 11:49:07;;;;;;;0.93;0.93;;;;;;;6.46;84.11;101509.50;6033193;29;20210;-79
2020/12/18 11:52:13;;;;;;;1.00;1.00;;;;;;;6.53;83.47;101521.31;6033319;29;20344;-78
2020/12/18 11:55:17;;;;;;;0.97;0.97;;;;;;;6.58;83.72;101497.25;6028045;29;20583;-79
2020/12/18 11:58:22;;;;;;;0.90;0.90;;;;;;;6.63;83.61;101519.25;6032686;29;20591;-78
2020/12/18 12:01:25;;;;;;;1.03;1.00;;;;;;;6.67;83.25;101517.91;6031352;29;20722;-79
2020/12/18 12:04:28;;;;;;;1.00;1.00;;;;;;;6.66;83.30;101505.34;6033344;29;20233;-77
2020/12/18 12:07:31;;;;;;;1.33;1.23;;;;;;;6.62;84.23;101541.97;6035263;29;20212;-79
2020/12/18 12:10:35;;;;;;;1.17;1.17;;;;;;;6.48;85.21;101539.97;6031460;29;20321;-77
2020/12/18 12:13:40;;;;;;;1.07;1.07;;;;;;;6.60;83.27;101542.13;6033103;29;20202;-79
2020/12/18 12:16:43;;;;;;;0.90;0.90;;;;;;;6.41;83.69;101549.81;6030870;29;20633;-80
2020/12/18 12:19:47;;;;;;;1.07;1.07;;;;;;;6.49;83.91;101547.09;6039418;29;20551;-81
2020/12/18 12:22:50;;;;;;;2.40;1.13;;;;;;;6.32;84.98;101552.53;6032179;29;20258;-78
2020/12/18 12:25:53;;;;;;;1.50;1.10;;;;;;;6.65;83.87;101564.16;6036572;29;20346;-80
2020/12/18 12:28:58;;;;;;;2.00;1.70;;;;;;;6.73;83.31;101571.41;6033977;29;20404;-78
2020/12/18 12:32:01;;;;;;;1.40;1.40;;;;;;;6.75;83.41;101569.41;6032657;29;20203;-80
2020/12/18 12:35:11;;;;;;;2.57;1.40;;;;;;;6.52;85.13;101584.72;6033020;29;20306;-78
2020/12/18 12:38:19;;;;;;;1.30;1.30;;;;;;;6.51;84.59;101593.84;6036573;29;20287;-80
2020/12/18 12:41:23;;;;;;;1.13;1.13;;;;;;;6.42;84.77;101592.19;6051648;29;20214;-81
2020/12/18 12:44:27;;;;;;;3.43;1.33;;;;;;;6.43;84.36;101591.16;6032700;29;20616;-80
2020/12/18 12:47:30;;;;;;;1.37;1.33;;;;;;;6.44;84.30;101590.16;6040786;29;20253;-80
2020/12/18 12:50:48;;;;;;;1.33;1.23;;;;;;;6.56;84.98;101594.19;6028154;29;20219;-79
2020/12/18 12:53:52;;;;;;;1.50;1.40;;;;;;;6.32;84.57;101589.63;6034270;29;20250;-79
2020/12/18 12:56:55;;;;;;;1.30;1.20;;;;;;;6.57;84.55;101593.19;6041629;29;20250;-82
2020/12/18 12:59:59;;;;;;;1.27;1.27;;;;;;;6.49;85.76;101585.06;6038380;29;20207;-79
2020/12/18 13:03:04;;;;;;;1.20;1.20;;;;;;;6.53;85.83;101589.09;6035232;29;20206;-79
2020/12/18 13:06:07;;;;;;;3.70;1.30;;;;;;;6.40;86.21;101586.06;6035395;29;20206;-78
2020/12/18 13:09:11;;;;;;;1.53;1.30;;;;;;;6.47;85.98;101576.25;6044060;29;20224;-79
2020/12/18 13:12:17;;;;;;;1.37;1.30;;;;;;;6.47;86.65;101587.09;6040269;29;20195;-82
2020/12/18 13:15:22;;;;;;;2.57;1.77;;;;;;;6.61;85.63;101606.22;6041283;29;20205;-82
2020/12/18 13:18:30;;;;;;;3.20;1.70;;;;;;;6.56;86.37;101592.31;6030362;29;20253;-79
2020/12/18 13:21:35;;;;;;;1.40;1.40;;;;;;;6.67;86.22;101604.66;6028361;29;20821;-80
2020/12/18 13:24:38;;;;;;;2.23;1.70;;;;;;;6.48;85.88;101586.06;6027228;29;20210;-79
2020/12/18 13:27:42;;;;;;;3.10;2.00;;;;;;;6.63;86.18;101619.56;6028079;29;20250;-80
2020/12/18 13:30:46;;;;;;;2.30;1.50;;;;;;;6.62;86.50;101618.75;6032096;29;20235;-79
2020/12/18 13:33:50;;;;;;;2.63;1.80;;;;;;;6.43;87.27;101612.84;6021748;29;20198;-78
2020/12/18 13:36:53;;;;;;;3.30;1.60;;;;;;;6.64;86.87;101621.28;6036652;29;20202;-79
2020/12/18 13:39:57;;;;;;;2.53;1.70;;;;;;;6.62;86.78;101607.06;6032831;29;20289;-80
2020/12/18 13:43:00;;;;;;;5.50;1.70;;;;;;;6.52;86.94;101638.94;6029723;29;20205;-78
2020/12/18 13:46:10;;;;;;;3.57;1.40;;;;;;;6.71;86.51;101643.97;6056260;29;20186;-81
2020/12/18 13:49:14;;;;;;;1.63;1.50;;;;;;;6.78;86.33;101650.41;6033805;29;20199;-82
2020/12/18 13:52:19;;;;;;;3.60;1.67;;;;;;;6.83;85.51;101653.47;6023041;29;20721;-79
2020/12/18 13:55:23;;;;;;;3.10;1.50;;;;;;;6.66;86.35;101651.78;6024391;29;20202;-79
2020/12/18 13:58:26;;;;;;;2.30;1.50;;;;;;;6.59;86.91;101626.38;6026196;29;20817;-78
2020/12/18 14:01:30;;;;;;;3.20;2.10;;;;;;;6.70;86.92;101664.00;6023580;29;20214;-78
2020/12/18 14:04:33;;;;;;;2.10;1.70;;;;;;;6.70;86.96;101651.25;6028799;29;20293;-78
2020/12/18 14:07:37;;;;;;;1.47;1.33;;;;;;;6.77;87.24;101649.56;6026776;29;20214;-79
2020/12/18 14:10:41;;;;;;;5.97;1.80;;;;;;;6.72;86.80;101645.69;6029715;29;20702;-79
2020/12/18 14:13:45;;;;;;;3.67;1.90;;;;;;;6.83;87.37;101664.31;6027741;29;20207;-78
2020/12/18 14:16:49;;;;;;;2.13;1.60;;;;;;;6.92;86.48;101664.13;6023831;29;20203;-79
2020/12/18 14:19:52;;;;;;;3.80;1.90;;;;;;;6.71;87.07;101641.25;6028796;29;20221;-78
2020/12/18 14:22:56;;;;;;;2.17;2.00;;;;;;;6.93;86.83;101675.81;6029457;29;20198;-78
2020/12/18 14:26:00;;;;;;;4.20;1.60;;;;;;;6.89;87.21;101677.16;6028219;29;20653;-78
2020/12/18 14:29:04;;;;;;;2.00;1.80;;;;;;;6.95;86.89;101673.78;6029019;29;20631;-83
2020/12/18 14:32:08;;;;;;;4.67;1.60;;;;;;;7.06;86.57;101675.28;6024584;29;20199;-79
2020/12/18 14:35:15;;;;;;;2.43;1.70;;;;;;;6.85;87.68;101678.53;6027203;29;20547;-79
2020/12/18 14:38:21;;;;;;;1.80;1.70;;;;;;;6.88;88.04;101678.22;6029286;29;20222;-79
2020/12/18 14:41:24;;;;;;;1.63;1.53;;;;;;;6.90;87.52;101684.28;6028814;29;20267;-78
2020/12/18 14:44:27;;;;;;;3.20;1.50;;;;;;;6.84;87.54;101687.69;6028843;29;20566;-78
2020/12/18 14:47:32;;;;;;;4.27;1.93;;;;;;;6.86;87.90;101691.94;6029264;29;20217;-78